Time;durP1;ratioP1;P1;durP2;ratioP2;P2;SDS_P1;SDS_P2;PMS_P1;PMS_P2;Temp;Humidity;BMP_temperature;BMP_pressure;BME280_temperature;BME280_humidity;BME280_pressure;Samples;Min_cycle;Max_cycle;Signal;HPM_P1;HPM_P2
2022/04/21 00:00:13;;;;;;;31.60;17.27;;;;;;;2.81;78.00;95259.66;6270861;22;20011;-86
2022/04/21 00:02:39;;;;;;;33.53;16.25;;;;;;;2.80;77.96;95260.66;6270576;22;20008;-86
2022/04/21 00:05:05;;;;;;;27.38;14.18;;;;;;;2.89;77.71;95269.81;6271275;22;20350;-86
2022/04/21 00:07:30;;;;;;;29.08;15.77;;;;;;;-0.97;77.04;94644.66;6270587;22;20015;-87
2022/04/21 00:09:56;;;;;;;28.88;16.92;;;;;;;1.85;78.00;95088.59;6270048;22;20015;-87
2022/04/21 00:12:22;;;;;;;26.92;15.38;;;;;;;2.36;77.63;95165.81;6269982;22;20019;-86
2022/04/21 00:14:48;;;;;;;36.58;17.40;;;;;;;1.98;77.32;95128.69;6271790;22;20063;-87
2022/04/21 00:17:14;;;;;;;26.38;15.77;;;;;;;0.04;76.93;94810.97;6272643;22;20461;-86
2022/04/21 00:19:40;;;;;;;23.70;15.13;;;;;;;1.36;77.29;95008.59;6270207;22;20032;-86
2022/04/21 00:24:50;;;;;;;23.27;14.40;;;;;;;0.20;76.42;94839.06;6272933;22;20045;-86
2022/04/21 00:27:16;;;;;;;27.65;16.15;;;;;;;2.29;76.77;95171.09;6270206;22;20084;-86
2022/04/21 00:29:41;;;;;;;29.55;15.98;;;;;;;2.34;77.10;95188.78;6270655;22;20015;-86
2022/04/21 00:32:07;;;;;;;31.73;17.40;;;;;;;2.43;77.76;95225.91;6270907;22;20358;-86
2022/04/21 00:34:33;;;;;;;30.05;16.52;;;;;;;2.00;78.50;95207.72;6272591;22;20004;-86
2022/04/21 00:36:59;;;;;;;24.15;15.82;;;;;;;1.60;78.25;95119.28;6269655;22;20008;-86
2022/04/21 00:39:25;;;;;;;29.88;16.67;;;;;;;1.62;77.52;95096.31;6269385;22;20031;-86
2022/04/21 00:42:00;;;;;;;34.22;16.95;;;;;;;1.39;76.90;95073.47;6271553;22;20007;-86
2022/04/21 00:44:27;;;;;;;32.58;16.20;;;;;;;2.33;77.92;95234.28;6269507;22;20053;-86
2022/04/21 00:47:00;;;;;;;29.05;16.25;;;;;;;1.76;77.74;95186.66;6269974;22;20354;-86
2022/04/21 00:49:27;;;;;;;36.22;17.05;;;;;;;1.86;77.53;95157.38;6269483;22;20428;-86
2022/04/21 00:51:54;;;;;;;35.55;17.75;;;;;;;1.57;78.43;95116.31;6269686;22;20035;-86
2022/04/21 00:54:20;;;;;;;42.20;17.83;;;;;;;-1.72;77.92;94614.47;6272446;22;20239;-86
2022/04/21 00:56:46;;;;;;;35.85;17.73;;;;;;;1.80;77.94;95150.41;6269706;22;20003;-86
2022/04/21 00:59:12;;;;;;;30.88;16.90;;;;;;;1.33;78.10;95144.09;6269766;22;20015;-86
2022/04/21 01:04:24;;;;;;;28.95;15.88;;;;;;;2.01;78.37;95230.22;6272437;22;20341;-85
2022/04/21 01:06:54;;;;;;;29.25;17.83;;;;;;;2.32;78.91;95254.41;6269429;22;20063;-85
2022/04/21 01:09:20;;;;;;;26.30;16.65;;;;;;;1.83;78.78;95204.91;6271935;22;20010;-85
2022/04/21 01:11:47;;;;;;;28.25;16.60;;;;;;;-0.74;78.53;94799.47;6270744;22;20008;-85
2022/04/21 01:14:14;;;;;;;29.17;16.52;;;;;;;-1.29;78.78;94757.59;6270716;22;20020;-85
2022/04/21 01:16:40;;;;;;;27.17;16.40;;;;;;;1.25;79.90;95213.09;6269581;22;20030;-85
2022/04/21 01:19:05;;;;;;;28.42;17.88;;;;;;;-0.88;80.06;94811.78;6268615;22;20043;-85
2022/04/21 01:21:31;;;;;;;27.27;16.70;;;;;;;0.70;80.08;95032.81;6269842;22;20086;-85
2022/04/21 01:23:56;;;;;;;27.35;16.42;;;;;;;1.15;79.57;95163.94;6272258;22;20011;-85
2022/04/21 01:26:22;;;;;;;29.05;15.43;;;;;;;0.48;79.85;95049.09;6270054;22;20007;-85
2022/04/21 01:28:49;;;;;;;31.30;18.25;;;;;;;0.71;80.39;95110.13;6272220;22;20007;-84
2022/04/21 01:31:24;;;;;;;31.48;17.52;;;;;;;0.30;80.39;95006.31;6270173;22;20019;-84
2022/04/21 01:33:50;;;;;;;29.05;16.77;;;;;;;-0.51;79.99;94849.16;6271484;22;20431;-84
2022/04/21 01:36:16;;;;;;;27.40;17.40;;;;;;;1.01;80.19;95075.50;6272200;22;20007;-85
2022/04/21 01:41:28;;;;;;;30.08;17.13;;;;;;;0.66;80.68;95070.00;6271444;22;20018;-85
2022/04/21 01:43:54;;;;;;;31.40;18.02;;;;;;;0.81;80.41;95109.63;6267995;22;20035;-84
2022/04/21 01:46:19;;;;;;;26.95;15.52;;;;;;;1.70;80.23;95208.44;6270463;22;20011;-84
2022/04/21 01:48:45;;;;;;;32.05;17.35;;;;;;;0.53;80.09;95023.97;6268305;22;20012;-84
2022/04/21 01:51:10;;;;;;;30.52;16.30;;;;;;;-0.07;79.88;94929.78;6268147;22;20011;-85
2022/04/21 01:53:36;;;;;;;28.27;16.27;;;;;;;1.67;79.41;95179.34;6268373;22;20068;-84
2022/04/21 01:56:02;;;;;;;28.80;17.17;;;;;;;1.61;79.62;95203.72;6268466;22;20563;-84
2022/04/21 01:58:27;;;;;;;26.55;16.13;;;;;;;-0.77;79.73;94771.25;6269532;22;20015;-85
2022/04/21 02:00:52;;;;;;;27.70;17.38;;;;;;;0.78;79.25;95032.53;6269450;22;20023;-84
2022/04/21 02:03:18;;;;;;;33.10;17.55;;;;;;;1.84;79.98;95164.63;6268637;22;20007;-84
2022/04/21 02:05:44;;;;;;;29.23;17.20;;;;;;;-1.40;78.79;94683.66;6268964;22;20077;-84
2022/04/21 02:08:10;;;;;;;27.13;17.27;;;;;;;0.50;78.83;95021.78;6269223;22;20016;-84
2022/04/21 02:10:36;;;;;;;30.55;17.48;;;;;;;-1.55;78.95;94667.56;6270195;22;20011;-85
2022/04/21 02:13:02;;;;;;;32.83;16.65;;;;;;;-0.33;78.93;94841.41;6268380;22;20028;-84
2022/04/21 02:15:27;;;;;;;26.05;17.23;;;;;;;1.42;78.84;95114.06;6270683;22;20008;-84
2022/04/21 02:17:53;;;;;;;30.10;18.17;;;;;;;2.06;78.42;95189.31;6268512;22;20003;-84
2022/04/21 02:20:18;;;;;;;29.60;17.27;;;;;;;0.86;78.06;95020.22;6269952;22;20212;-85
2022/04/21 02:22:44;;;;;;;26.30;16.85;;;;;;;1.80;78.55;95169.53;6270565;22;20403;-85
2022/04/21 02:25:12;;;;;;;30.67;17.23;;;;;;;1.23;78.36;95063.59;6271035;22;20039;-84
2022/04/21 02:27:41;;;;;;;25.27;16.60;;;;;;;-2.85;78.10;94427.44;6269055;22;20047;-85
2022/04/21 02:30:08;;;;;;;31.63;17.85;;;;;;;-1.43;78.53;94694.47;6271156;22;20008;-85
2022/04/21 02:32:34;;;;;;;35.22;18.65;;;;;;;1.13;79.21;95134.66;6271260;22;20003;-84
2022/04/21 02:35:01;;;;;;;29.67;17.55;;;;;;;0.64;79.42;95041.50;6268409;22;20384;-84
2022/04/21 02:37:27;;;;;;;29.08;17.42;;;;;;;1.53;79.57;95202.97;6270046;22;20003;-85
2022/04/21 02:39:52;;;;;;;28.98;16.45;;;;;;;0.92;79.17;95103.69;6268812;22;20081;-85
2022/04/21 02:42:21;;;;;;;35.15;17.98;;;;;;;0.84;79.08;95067.41;6269685;22;20397;-85
2022/04/21 02:44:48;;;;;;;30.33;16.60;;;;;;;1.49;78.98;95152.16;6268552;22;20103;-85
2022/04/21 02:47:14;;;;;;;29.95;18.27;;;;;;;1.22;78.84;95118.72;6268271;22;20065;-85
2022/04/21 02:49:45;;;;;;;29.92;19.08;;;;;;;0.37;79.20;94975.75;6268623;22;20450;-85
2022/04/21 02:52:11;;;;;;;31.05;18.73;;;;;;;-0.71;79.42;94807.66;6268742;22;20003;-85
2022/04/21 02:57:22;;;;;;;35.60;21.67;;;;;;;1.71;78.21;95223.13;6270601;22;20015;-85
2022/04/21 02:59:53;;;;;;;48.42;24.50;;;;;;;0.36;78.34;95002.03;6268303;22;20007;-85
2022/04/21 03:02:19;;;;;;;40.10;20.95;;;;;;;1.41;78.56;95196.06;6270353;22;20414;-85
2022/04/21 03:04:45;;;;;;;36.97;18.58;;;;;;;0.53;79.29;95062.31;6271500;22;20007;-85
2022/04/21 03:07:10;;;;;;;34.97;19.38;;;;;;;0.76;78.79;95094.59;6270896;22;20023;-83
2022/04/21 03:09:36;;;;;;;32.47;18.95;;;;;;;0.77;78.25;95098.81;6270661;22;20035;-84
2022/04/21 03:12:03;;;;;;;34.00;18.40;;;;;;;-0.76;78.75;94864.75;6269499;22;20336;-84
2022/04/21 03:14:28;;;;;;;36.58;19.50;;;;;;;-1.20;78.96;94808.38;6269463;22;20011;-84
2022/04/21 03:16:54;;;;;;;31.42;19.33;;;;;;;-1.82;78.29;94694.72;6271477;22;20020;-84
2022/04/21 03:19:20;;;;;;;38.40;20.30;;;;;;;-3.59;79.09;94422.81;6271051;22;20003;-84
2022/04/21 03:24:30;;;;;;;29.75;18.00;;;;;;;0.22;79.64;95037.06;6272104;22;20041;-85
2022/04/21 03:26:56;;;;;;;35.80;18.75;;;;;;;-0.50;80.11;94983.63;6272422;22;20012;-84
2022/04/21 03:29:21;;;;;;;39.90;19.77;;;;;;;-1.47;80.05;94806.94;6270686;22;20007;-85
2022/04/21 03:31:48;;;;;;;110.20;44.97;;;;;;;-3.13;79.98;94538.53;6270889;22;20453;-84
2022/04/21 03:34:15;;;;;;;362.73;169.18;;;;;;;-1.23;79.83;94821.84;6270801;22;20012;-85
2022/04/21 03:36:48;;;;;;;77.35;40.17;;;;;;;-0.71;79.61;94891.00;6270114;22;20059;-84
2022/04/21 03:39:19;;;;;;;46.28;24.13;;;;;;;1.34;79.43;95197.97;6269513;22;20012;-85
2022/04/21 03:41:45;;;;;;;41.58;24.63;;;;;;;1.21;80.36;95203.31;6270819;22;20385;-85
2022/04/21 03:44:13;;;;;;;40.53;23.73;;;;;;;1.30;80.83;95202.03;6271151;22;20094;-84
2022/04/21 03:46:38;;;;;;;55.97;28.38;;;;;;;1.41;80.56;95199.50;6273068;22;20012;-85
2022/04/21 03:49:07;;;;;;;56.28;26.10;;;;;;;1.62;80.69;95205.31;6271447;22;20008;-84
2022/04/21 03:51:34;;;;;;;53.15;27.13;;;;;;;1.69;80.70;95196.38;6269107;22;20074;-84
2022/04/21 03:53:59;;;;;;;43.63;23.70;;;;;;;0.58;79.89;95080.72;6269873;22;20478;-84
2022/04/21 03:56:26;;;;;;;43.03;23.63;;;;;;;1.12;80.76;95171.44;6271455;22;19999;-84
2022/04/21 03:58:52;;;;;;;49.78;23.63;;;;;;;0.83;80.85;95080.72;6269647;22;20091;-84
2022/04/21 04:01:19;;;;;;;43.60;24.40;;;;;;;1.38;81.29;95214.78;6271118;22;20451;-85
2022/04/21 04:03:45;;;;;;;43.83;24.42;;;;;;;0.70;80.65;95102.50;6270121;22;20134;-84
2022/04/21 04:11:39;;;;;;;49.33;26.65;;;;;;;1.38;81.67;95147.66;6273789;22;20018;-86
2022/04/21 04:14:08;;;;;;;44.88;24.08;;;;;;;1.03;81.14;95078.69;6268953;22;20458;-85
2022/04/21 04:16:34;;;;;;;42.63;25.35;;;;;;;1.25;80.84;95126.88;6269900;22;20000;-85
2022/04/21 04:19:03;;;;;;;45.20;26.88;;;;;;;0.01;80.55;94915.66;6272065;22;20012;-85
2022/04/21 04:21:30;;;;;;;49.15;25.92;;;;;;;-0.85;80.23;94772.31;6263078;22;20003;-86
2022/04/21 04:23:57;;;;;;;50.17;27.90;;;;;;;1.67;80.63;95147.97;6267526;22;20026;-87
2022/04/21 04:26:23;;;;;;;49.50;27.50;;;;;;;0.85;80.49;95016.81;6263952;22;20340;-85
2022/04/21 04:28:49;;;;;;;56.40;28.42;;;;;;;1.57;80.14;95096.19;6267396;22;20065;-86
2022/04/21 04:31:25;;;;;;;59.40;30.35;;;;;;;2.35;80.29;95207.91;6266361;22;20011;-85
2022/04/21 04:33:51;;;;;;;51.88;27.98;;;;;;;2.01;80.59;95167.47;6261624;22;20018;-88
2022/04/21 04:36:16;;;;;;;53.20;28.27;;;;;;;0.73;80.09;94945.47;6262017;22;20008;-86
2022/04/21 04:38:45;;;;;;;50.47;28.90;;;;;;;1.64;79.62;95043.81;6262844;22;20078;-87
2022/04/21 04:44:08;;;;;;;49.03;26.70;;;;;;;1.97;79.15;95100.94;6265404;22;20017;-89
2022/04/21 04:46:40;;;;;;;49.40;25.80;;;;;;;0.27;78.67;94811.09;6259618;22;20116;-86
2022/04/21 04:49:07;;;;;;;47.45;27.30;;;;;;;-0.04;78.50;94774.75;6262876;22;20035;-87
2022/04/21 04:51:34;;;;;;;45.70;25.23;;;;;;;2.88;78.89;95207.97;6265067;22;20018;-86
2022/04/21 04:54:01;;;;;;;41.13;24.80;;;;;;;0.95;78.57;94901.41;6264584;22;20004;-85
2022/04/21 04:56:29;;;;;;;46.63;27.30;;;;;;;3.08;78.43;95238.06;6264791;22;20004;-86
2022/04/21 04:59:22;;;;;;;44.88;26.13;;;;;;;3.22;78.46;95245.72;6266207;22;20457;-84
2022/04/21 05:05:29;;;;;;;46.22;25.98;;;;;;;1.22;77.75;94939.22;6228819;23;20495;-86
2022/04/21 05:13:57;;;;;;;43.85;25.17;;;;;;;1.37;75.84;94876.16;6283519;22;20018;-85
2022/04/21 05:16:23;;;;;;;47.70;26.48;;;;;;;-2.62;75.52;94257.38;6266644;22;20018;-85
2022/04/21 05:18:51;;;;;;;38.53;23.65;;;;;;;-2.42;75.58;94317.66;6266106;22;20110;-85
2022/04/21 05:21:17;;;;;;;38.92;22.42;;;;;;;-1.22;75.10;94454.75;6265444;22;20011;-86
2022/04/21 05:23:47;;;;;;;38.17;20.42;;;;;;;-0.51;74.89;94641.56;6267579;22;20030;-86
2022/04/21 05:26:15;;;;;;;28.95;18.13;;;;;;;3.08;75.01;95124.59;6265311;22;20142;-85
2022/04/21 05:28:45;;;;;;;27.23;15.73;;;;;;;1.40;74.16;94930.56;6273899;22;20018;-85
2022/04/21 05:31:11;;;;;;;26.42;15.30;;;;;;;1.54;73.74;94916.28;6295501;22;20015;-85
2022/04/21 05:33:43;;;;;;;23.80;15.65;;;;;;;2.12;73.67;94979.16;6294582;22;20068;-85
2022/04/21 05:36:09;;;;;;;25.40;16.30;;;;;;;1.15;73.52;94768.75;6296754;22;20009;-86
2022/04/21 05:38:35;;;;;;;24.27;14.80;;;;;;;0.86;73.07;94718.19;6275710;22;20049;-86
2022/04/21 05:41:02;;;;;;;33.45;17.45;;;;;;;3.14;73.55;95091.44;6279380;22;20019;-86
2022/04/21 05:43:46;;;;;;;32.90;16.52;;;;;;;1.20;72.85;94750.59;6273388;22;20018;-86
2022/04/21 05:46:14;;;;;;;50.00;18.73;;;;;;;3.72;72.51;95172.66;6295744;22;20007;-85
2022/04/21 05:48:44;;;;;;;31.33;17.17;;;;;;;4.28;72.37;95227.06;6264351;22;20088;-84
2022/04/21 05:51:11;;;;;;;30.60;18.50;;;;;;;3.77;72.04;95155.19;6261021;22;20453;-85
2022/04/21 05:53:48;;;;;;;30.90;18.38;;;;;;;-0.40;71.68;94475.94;6264443;22;20011;-83
2022/04/21 05:56:13;;;;;;;40.35;19.40;;;;;;;-0.48;72.70;94523.94;6291353;22;20486;-84
2022/04/21 05:58:39;;;;;;;35.95;20.17;;;;;;;-0.57;72.06;94449.72;6290518;22;20187;-84
2022/04/21 06:01:11;;;;;;;34.70;21.98;;;;;;;3.92;73.18;95170.44;6262430;22;20011;-85
2022/04/21 06:03:49;;;;;;;35.97;21.73;;;;;;;4.33;72.06;95214.03;6274006;22;20034;-85
2022/04/21 06:06:15;;;;;;;36.92;21.55;;;;;;;0.67;72.84;94651.44;6232511;22;21219;-83
2022/04/21 06:08:40;;;;;;;36.65;23.90;;;;;;;3.14;73.31;94997.09;6259025;22;20058;-82
2022/04/21 06:11:14;;;;;;;39.50;23.65;;;;;;;4.77;72.55;95222.19;6259635;22;20019;-84
2022/04/21 06:13:43;;;;;;;36.50;22.77;;;;;;;3.38;71.90;95019.59;6268449;22;20035;-86
2022/04/21 06:16:12;;;;;;;38.63;23.08;;;;;;;4.88;71.71;95252.91;6255311;22;20007;-83
2022/04/21 06:18:41;;;;;;;39.50;24.20;;;;;;;2.75;72.43;94915.63;6265428;22;20356;-83
2022/04/21 06:21:09;;;;;;;34.80;21.17;;;;;;;-0.82;72.17;94329.31;6262447;22;20019;-84
2022/04/21 06:23:35;;;;;;;48.60;24.08;;;;;;;4.47;72.03;95181.22;6249625;22;20458;-85
2022/04/21 06:26:03;;;;;;;38.45;24.95;;;;;;;4.50;72.61;95177.34;6252674;22;20026;-85
2022/04/21 06:28:29;;;;;;;35.10;23.35;;;;;;;0.30;71.17;94536.81;6252198;22;20461;-85
2022/04/21 06:30:55;;;;;;;36.85;23.52;;;;;;;1.88;71.07;94723.88;6254303;22;20444;-85
2022/04/21 06:33:20;;;;;;;42.83;23.88;;;;;;;3.10;71.09;94923.41;6252239;22;20035;-85
2022/04/21 06:35:49;;;;;;;41.22;25.08;;;;;;;3.14;71.74;94911.44;6259140;22;20564;-85
2022/04/21 06:38:14;;;;;;;44.78;26.13;;;;;;;0.41;71.06;94440.53;6250237;22;20614;-85
2022/04/21 06:40:40;;;;;;;51.72;29.15;;;;;;;0.29;71.50;94441.34;6256320;22;20098;-84
2022/04/21 06:49:04;;;;;;;48.60;26.25;;;;;;;1.41;71.15;94600.31;6204564;22;20450;-84
2022/04/21 06:51:30;;;;;;;44.45;27.00;;;;;;;3.57;71.34;94931.09;6257978;22;20081;-84
2022/04/21 06:53:55;;;;;;;51.08;28.23;;;;;;;1.50;70.42;94551.91;6257883;22;20518;-86
2022/04/21 06:56:21;;;;;;;48.20;26.52;;;;;;;5.17;70.11;95172.16;6258561;22;20011;-85
2022/04/21 06:58:47;;;;;;;59.55;27.40;;;;;;;5.02;70.20;95078.91;6257629;22;20015;-85
2022/04/21 07:01:13;;;;;;;46.13;25.92;;;;;;;4.89;69.96;95066.06;6258822;22;20015;-85
2022/04/21 07:03:38;;;;;;;39.50;25.80;;;;;;;5.19;70.09;95141.94;6257263;22;20018;-84
2022/04/21 07:06:04;;;;;;;54.45;25.23;;;;;;;-0.16;68.76;94297.75;6224156;22;20087;-85
2022/04/21 07:08:29;;;;;;;36.33;22.63;;;;;;;4.02;68.48;94959.94;6260896;22;20122;-85
2022/04/21 07:10:56;;;;;;;49.70;25.15;;;;;;;4.23;68.58;94964.47;6265142;22;20053;-85
2022/04/21 07:13:22;;;;;;;33.45;20.40;;;;;;;4.18;67.49;94946.81;6292909;22;20480;-85
2022/04/21 07:15:48;;;;;;;37.90;21.35;;;;;;;3.72;66.95;94908.56;6261532;22;19999;-84
2022/04/21 07:18:19;;;;;;;41.80;20.98;;;;;;;2.46;67.70;94678.41;6238542;22;20023;-83
2022/04/21 07:20:47;;;;;;;34.40;22.08;;;;;;;1.85;66.56;94510.72;6261961;22;20045;-83
2022/04/21 07:23:15;;;;;;;33.05;20.05;;;;;;;3.53;66.96;94754.28;6263219;22;20011;-83
2022/04/21 07:25:42;;;;;;;31.70;19.15;;;;;;;1.83;65.47;94494.47;6261011;22;20386;-83
2022/04/21 07:28:07;;;;;;;37.92;21.15;;;;;;;4.88;65.36;94940.97;6265019;22;20015;-84
2022/04/21 07:30:42;;;;;;;36.13;19.92;;;;;;;4.94;64.66;94952.34;6261383;22;20011;-85
2022/04/21 07:33:10;;;;;;;40.03;21.73;;;;;;;6.62;65.01;95234.94;6267228;22;20011;-85
2022/04/21 07:35:37;;;;;;;33.40;18.60;;;;;;;3.62;64.41;94839.41;6291626;22;20014;-83
2022/04/21 07:38:02;;;;;;;26.90;18.23;;;;;;;5.94;64.65;95191.44;6286618;22;20011;-84
2022/04/21 07:40:28;;;;;;;31.45;18.48;;;;;;;6.64;63.48;95267.06;6260268;22;20085;-85
2022/04/21 07:42:54;;;;;;;36.10;19.23;;;;;;;4.36;62.98;94895.06;6236714;22;20011;-85
2022/04/21 07:45:19;;;;;;;26.83;16.20;;;;;;;5.95;63.25;95131.69;6258321;22;20374;-84
2022/04/21 07:47:45;;;;;;;31.88;18.55;;;;;;;6.66;62.63;95235.22;6257491;22;20194;-86
2022/04/21 07:50:10;;;;;;;28.00;16.45;;;;;;;6.18;62.77;95165.66;6261603;22;20469;-86
2022/04/21 07:55:23;;;;;;;28.33;17.63;;;;;;;5.05;62.69;94996.13;6285805;22;20096;-85
2022/04/21 07:57:57;;;;;;;27.40;17.27;;;;;;;3.19;62.31;94693.25;6251845;22;20011;-84
2022/04/21 08:00:23;;;;;;;27.52;16.02;;;;;;;1.86;62.46;94440.91;6257197;22;20015;-84
2022/04/21 08:02:52;;;;;;;38.42;16.00;;;;;;;5.13;61.64;94929.97;6261711;22;20038;-84
2022/04/21 08:05:20;;;;;;;31.30;18.90;;;;;;;6.72;61.52;95163.84;6262004;22;20082;-82
2022/04/21 08:07:46;;;;;;;34.00;17.98;;;;;;;3.87;61.23;94759.28;6284478;22;20053;-83
2022/04/21 08:10:14;;;;;;;38.30;19.05;;;;;;;4.55;61.49;94914.78;6264089;22;20031;-82
2022/04/21 08:12:44;;;;;;;34.03;18.48;;;;;;;6.88;62.17;95214.88;6232139;22;20359;-82
2022/04/21 08:15:15;;;;;;;34.85;20.17;;;;;;;6.29;62.25;95127.06;6286104;22;20219;-83
2022/04/21 08:17:41;;;;;;;44.78;19.25;;;;;;;5.92;61.51;95038.22;6289172;22;20125;-83
2022/04/21 08:20:10;;;;;;;40.63;20.77;;;;;;;4.94;60.72;94836.72;6287109;22;20414;-83
2022/04/21 08:22:37;;;;;;;34.03;20.30;;;;;;;4.81;60.38;94853.66;6262429;22;20400;-83
2022/04/21 08:33:21;;;;;;;30.80;19.90;;;;;;;7.35;59.63;95112.16;6289658;22;20022;-85
2022/04/21 08:35:49;;;;;;;35.17;19.30;;;;;;;7.60;59.17;95138.69;6287775;22;20003;-83
2022/04/21 08:38:15;;;;;;;33.10;20.80;;;;;;;8.00;59.52;95172.44;6294645;22;20009;-82
2022/04/21 08:40:58;;;;;;;39.78;21.15;;;;;;;6.34;59.19;94880.31;6260668;22;20398;-81
2022/04/21 08:43:29;;;;;;;44.47;22.38;;;;;;;5.65;58.52;94777.69;6259638;22;20104;-86
2022/04/21 08:46:00;;;;;;;48.20;23.40;;;;;;;4.07;58.37;94543.56;6262550;22;20023;-86
2022/04/21 08:48:37;;;;;;;32.92;21.10;;;;;;;7.52;58.77;95046.03;6291106;22;20003;-84
2022/04/21 08:51:12;;;;;;;38.28;21.15;;;;;;;3.77;56.94;94520.44;6258206;22;20068;-85
2022/04/21 08:53:38;;;;;;;38.53;21.83;;;;;;;4.45;56.56;94597.72;6261366;22;20465;-84
2022/04/21 08:56:04;;;;;;;36.40;21.80;;;;;;;3.21;57.19;94447.47;6289496;22;20212;-86
2022/04/21 08:58:39;;;;;;;35.38;22.13;;;;;;;4.53;58.11;94606.97;6288785;22;20014;-84
2022/04/21 09:01:07;;;;;;;38.10;21.38;;;;;;;3.63;57.95;94460.78;6257360;22;20007;-83
2022/04/21 09:03:35;;;;;;;42.17;24.10;;;;;;;6.30;58.40;94870.56;6259226;22;20161;-85
2022/04/21 09:06:01;;;;;;;43.33;23.52;;;;;;;4.30;57.32;94510.16;6263675;22;20023;-86
2022/04/21 09:08:27;;;;;;;37.60;24.17;;;;;;;4.44;57.12;94511.31;6292246;22;20479;-85
2022/04/21 09:11:15;;;;;;;45.95;24.00;;;;;;;4.68;57.72;94559.03;6267932;22;20034;-86
2022/04/21 09:13:45;;;;;;;38.25;22.17;;;;;;;4.47;57.28;94532.63;6266274;22;20112;-85
2022/04/21 09:16:14;;;;;;;43.15;24.48;;;;;;;6.19;58.24;94793.34;6266718;22;20007;-84
2022/04/21 09:18:52;;;;;;;;;;;;;;;;;;;;;
2022/04/21 09:21:20;;;;;;;41.42;22.90;;;;;;;3.88;57.95;94446.06;6292218;22;20450;-84
2022/04/21 09:23:47;;;;;;;43.38;24.70;;;;;;;4.63;57.30;94533.53;6287009;22;20113;-85
2022/04/21 09:26:15;;;;;;;42.53;23.52;;;;;;;4.40;57.15;94531.25;6266422;22;20381;-86
2022/04/21 09:28:53;;;;;;;41.67;24.00;;;;;;;6.77;57.96;94862.66;6260452;22;20490;-83
2022/04/21 09:31:29;;;;;;;43.33;22.83;;;;;;;8.70;57.64;95151.81;6263748;22;20404;-82
2022/04/21 09:33:55;;;;;;;47.15;24.67;;;;;;;6.14;59.03;94712.50;6267630;22;20107;-83
2022/04/21 09:36:24;;;;;;;46.97;24.13;;;;;;;5.39;58.05;94547.94;6265392;22;20018;-84
2022/04/21 09:39:01;;;;;;;53.47;25.45;;;;;;;7.61;57.93;94931.78;6289958;22;20034;-84
2022/04/21 09:41:31;;;;;;;41.42;25.00;;;;;;;4.46;57.81;94449.66;6262374;22;20014;-84
2022/04/21 09:46:56;;;;;;;38.38;23.35;;;;;;;8.09;57.30;94953.50;6295003;22;20729;-84
2022/04/21 09:49:38;;;;;;;38.55;23.70;;;;;;;9.86;56.84;95182.75;6264995;22;20343;-83
2022/04/21 09:52:05;;;;;;;45.92;24.33;;;;;;;7.18;55.73;94793.16;6258680;22;20059;-85
2022/04/21 09:54:46;;;;;;;35.88;22.58;;;;;;;10.21;56.78;95197.81;6260936;22;20020;-84
2022/04/21 09:57:12;;;;;;;;;;;;;;;10.33;56.20;95190.34;6263151;22;20015;-85
2022/04/21 09:59:44;;;;;;;36.85;22.45;;;;;;;5.61;54.81;94510.94;6258807;22;20007;-85
2022/04/21 10:05:22;;;;;;;45.10;22.48;;;;;;;6.30;56.93;94586.94;6260353;22;20023;-85
2022/04/21 10:08:03;;;;;;;43.45;23.10;;;;;;;7.71;55.00;94770.00;6260554;22;20051;-83
2022/04/21 10:10:57;;;;;;;42.33;22.98;;;;;;;8.63;56.51;94939.78;6265096;22;20333;-86
2022/04/21 10:13:25;;;;;;;42.45;24.73;;;;;;;8.07;54.54;94791.88;6252369;22;20346;-84
2022/04/21 10:15:52;;;;;;;37.50;23.35;;;;;;;8.69;54.05;94928.97;6262390;22;20007;-85
2022/04/21 10:18:19;;;;;;;37.25;23.13;;;;;;;8.30;54.34;94894.34;6260019;22;20015;-86
2022/04/21 10:20:45;;;;;;;39.97;25.05;;;;;;;6.43;54.49;94575.09;6257898;22;20072;-82
2022/04/21 10:23:22;;;;;;;42.10;26.40;;;;;;;9.53;54.87;95054.44;6262876;22;20513;-82
2022/04/21 10:26:02;;;;;;;43.65;23.88;;;;;;;10.01;54.47;95109.31;6262624;22;20003;-82
2022/04/21 10:28:43;;;;;;;54.25;25.52;;;;;;;10.61;54.75;95170.31;6248831;22;20473;-84
2022/04/21 10:31:32;;;;;;;42.33;24.77;;;;;;;10.54;54.83;95167.97;6255714;22;20069;-82
2022/04/21 10:34:00;;;;;;;53.42;23.33;;;;;;;8.77;55.05;94938.97;6248557;22;20011;-82
2022/04/21 10:36:38;;;;;;;38.70;22.23;;;;;;;10.05;54.87;95113.03;6247205;22;20015;-82
2022/04/21 10:39:18;;;;;;;45.00;24.92;;;;;;;10.68;54.84;95161.00;6249798;22;20011;-82
2022/04/21 10:41:44;;;;;;;38.92;24.00;;;;;;;10.34;55.36;95118.50;6246676;22;20015;-83
2022/04/21 10:44:29;;;;;;;35.60;24.05;;;;;;;10.07;55.28;95054.44;6252328;22;20085;-85
2022/04/21 10:47:29;;;;;;;42.63;23.92;;;;;;;10.99;54.51;95158.94;6255218;22;20031;-84
2022/04/21 10:50:19;;;;;;;36.20;22.90;;;;;;;9.19;53.82;94916.63;6253943;22;20015;-83
2022/04/21 10:58:50;;;;;;;31.20;20.98;;;;;;;10.79;54.89;95159.09;6253166;22;20100;-84
2022/04/21 11:01:23;;;;;;;37.92;23.13;;;;;;;10.59;56.17;95157.34;6255000;22;20024;-84
2022/04/21 11:04:16;;;;;;;39.78;22.00;;;;;;;10.56;55.69;95091.59;6251876;22;20456;-84
2022/04/21 11:06:51;;;;;;;38.55;20.65;;;;;;;10.04;54.71;94933.94;6253497;22;20098;-84
2022/04/21 11:09:35;;;;;;;34.08;20.92;;;;;;;11.79;53.61;95143.44;6252589;22;20010;-83
2022/04/21 11:12:04;;;;;;;39.30;22.15;;;;;;;10.89;53.44;94941.47;6262014;22;20008;-83
2022/04/21 11:14:33;;;;;;;32.67;21.80;;;;;;;10.78;52.19;94893.03;6258980;22;20022;-84
2022/04/21 11:17:00;;;;;;;46.28;22.02;;;;;;;11.31;52.51;94951.38;6256013;22;20008;-84
2022/04/21 11:19:29;;;;;;;34.60;21.42;;;;;;;12.98;50.25;95153.13;6253990;22;20463;-85
2022/04/21 11:22:03;;;;;;;36.97;22.38;;;;;;;12.28;49.43;94988.16;6261360;22;20131;-86
2022/04/21 11:24:55;;;;;;;28.77;20.13;;;;;;;11.54;49.80;94844.31;6259873;22;20087;-85
2022/04/21 11:27:22;;;;;;;28.27;19.30;;;;;;;13.80;48.89;95143.56;6259020;22;20119;-85
2022/04/21 11:29:47;;;;;;;27.83;19.83;;;;;;;13.72;47.62;95034.97;6262564;22;20069;-85
2022/04/21 11:32:17;;;;;;;28.08;18.48;;;;;;;14.47;45.74;95081.75;6259965;22;20011;-84
2022/04/21 11:35:24;;;;;;;35.42;20.25;;;;;;;14.84;45.09;95077.97;6263035;22;20011;-84
2022/04/21 11:37:57;;;;;;;36.92;19.75;;;;;;;14.93;43.88;95106.34;6252944;22;20069;-84
2022/04/21 11:40:26;;;;;;;33.30;19.20;;;;;;;15.15;44.98;95136.81;6256566;22;20008;-84
2022/04/21 11:42:53;;;;;;;26.33;17.42;;;;;;;13.14;45.05;94819.81;6260609;22;20012;-83
2022/04/21 11:45:41;;;;;;;27.65;16.98;;;;;;;14.56;46.03;95131.44;6258529;22;20008;-84
2022/04/21 11:48:12;;;;;;;25.63;17.35;;;;;;;14.78;45.82;95136.06;6255371;22;20102;-83
2022/04/21 11:50:42;;;;;;;28.10;18.20;;;;;;;11.17;44.62;94536.44;6260745;22;20007;-83
2022/04/21 11:53:20;;;;;;;29.98;18.90;;;;;;;14.37;44.82;95000.00;6264462;22;20014;-85
2022/04/21 11:55:47;;;;;;;25.38;16.67;;;;;;;15.44;44.87;95116.59;6262267;22;20011;-84
2022/04/21 11:58:25;;;;;;;30.30;18.17;;;;;;;15.76;43.35;95120.13;6265106;22;20017;-84
2022/04/21 12:06:30;;;;;;;28.80;17.50;;;;;;;16.53;41.83;95108.91;6295047;22;20038;-87
2022/04/21 12:09:00;;;;;;;24.33;17.55;;;;;;;16.12;42.49;94957.56;6266067;22;20054;-87
2022/04/21 12:11:26;;;;;;;31.02;17.30;;;;;;;17.17;40.46;95028.72;6261564;22;20438;-83
2022/04/21 12:13:52;;;;;;;24.05;16.63;;;;;;;15.13;41.74;94789.09;6292357;22;20026;-85
2022/04/21 12:16:37;;;;;;;29.90;14.60;;;;;;;16.59;40.75;95096.94;6297151;22;20003;-85
2022/04/21 12:19:16;;;;;;;26.70;15.27;;;;;;;16.16;41.09;95028.06;6263156;22;20315;-83
2022/04/21 12:22:08;;;;;;;24.30;16.15;;;;;;;16.81;41.06;95094.16;6259929;22;20047;-81
2022/04/21 12:24:38;;;;;;;31.38;17.48;;;;;;;15.22;43.02;94916.25;6288497;22;20018;-82
2022/04/21 12:27:29;;;;;;;29.15;17.13;;;;;;;14.79;43.12;94865.34;6286487;22;20011;-81
2022/04/21 12:30:06;;;;;;;29.92;16.80;;;;;;;14.29;43.66;94859.34;6289666;22;20007;-81
2022/04/21 12:32:36;;;;;;;27.38;16.63;;;;;;;15.80;42.85;95056.88;6264698;22;20632;-82
2022/04/21 12:35:07;;;;;;;22.70;15.23;;;;;;;15.48;45.29;95092.75;6294894;22;20015;-84
2022/04/21 12:37:34;;;;;;;24.30;15.25;;;;;;;13.55;44.97;94775.53;6293945;22;20114;-84
2022/04/21 12:40:08;;;;;;;30.52;15.80;;;;;;;15.73;44.97;95078.72;6266357;22;20207;-82